createdAt,value
2017-10-25T00:02:24.757Z,13.43
2017-10-25T00:04:52.237Z,13.87
2017-10-25T00:07:19.709Z,24.13
2017-10-25T00:09:47.162Z,14.57
2017-10-25T00:12:14.678Z,11.73
2017-10-25T00:14:42.125Z,7.33
2017-10-25T00:17:09.608Z,9.17
2017-10-25T00:19:37.882Z,6.10
2017-10-25T00:22:05.332Z,6.77
2017-10-25T00:24:32.812Z,13.90
2017-10-25T00:27:01.074Z,8.33
2017-10-25T00:29:28.536Z,12.83
2017-10-25T00:31:55.986Z,9.80
2017-10-25T00:34:24.026Z,12.43
2017-10-25T00:36:51.489Z,10.73
2017-10-25T00:39:18.973Z,33.37
2017-10-25T00:41:46.469Z,16.90
2017-10-25T00:44:13.937Z,19.70
2017-10-25T00:46:41.417Z,17.33
2017-10-25T00:49:08.915Z,13.97
2017-10-25T00:51:36.383Z,20.10
2017-10-25T00:54:03.862Z,19.93
2017-10-25T00:56:31.440Z,16.13
2017-10-25T00:58:58.903Z,17.47
2017-10-25T01:01:26.393Z,18.70
2017-10-25T01:03:54.484Z,20.10
2017-10-25T01:06:22.709Z,13.63
2017-10-25T01:08:50.198Z,17.03
2017-10-25T01:11:17.649Z,15.30
2017-10-25T01:13:45.105Z,15.03
2017-10-25T01:16:12.581Z,16.23
2017-10-25T01:18:40.038Z,14.53
2017-10-25T01:21:07.489Z,12.60
2017-10-25T01:23:34.973Z,21.83
2017-10-25T01:26:02.437Z,13.77
2017-10-25T01:28:30.035Z,16.43
2017-10-25T01:30:57.493Z,16.30
2017-10-25T01:33:25.009Z,21.63
2017-10-25T01:35:52.497Z,17.10
2017-10-25T01:38:19.962Z,13.00
2017-10-25T01:40:47.421Z,9.13
2017-10-25T01:43:14.910Z,20.00
2017-10-25T01:45:42.365Z,18.07
2017-10-25T01:48:09.822Z,17.80
2017-10-25T01:50:37.330Z,11.73
2017-10-25T01:53:05.547Z,18.10
2017-10-25T01:55:33.017Z,16.03
2017-10-25T01:58:00.513Z,15.93
2017-10-25T02:00:28.734Z,18.50
2017-10-25T02:02:56.189Z,15.73
2017-10-25T02:05:23.677Z,13.77
2017-10-25T02:07:51.137Z,15.30
2017-10-25T02:10:18.593Z,21.37
2017-10-25T02:12:46.073Z,16.77
2017-10-25T02:15:14.296Z,14.50
2017-10-25T02:17:41.751Z,15.20
2017-10-25T02:20:09.284Z,21.50
2017-10-25T02:22:36.762Z,17.37
2017-10-25T02:25:04.222Z,15.77
2017-10-25T02:27:31.697Z,19.87
2017-10-25T02:29:59.170Z,16.03
2017-10-25T02:32:26.631Z,17.40
2017-10-25T02:34:54.126Z,15.70
2017-10-25T02:37:22.351Z,10.50
2017-10-25T02:39:49.802Z,19.40
2017-10-25T02:42:17.273Z,14.10
2017-10-25T02:44:44.725Z,12.83
2017-10-25T02:47:12.226Z,14.73
2017-10-25T02:49:39.781Z,13.33
2017-10-25T02:52:08.011Z,11.37
2017-10-25T02:54:36.300Z,29.90
2017-10-25T02:57:04.248Z,22.17
2017-10-25T02:59:31.966Z,14.60
2017-10-25T03:01:59.704Z,17.13
2017-10-25T03:04:27.678Z,24.60
2017-10-25T03:06:55.529Z,17.30
2017-10-25T03:09:22.990Z,19.93
2017-10-25T03:11:50.437Z,15.07
2017-10-25T03:14:17.911Z,20.67
2017-10-25T03:16:45.385Z,14.80
2017-10-25T03:19:12.844Z,16.57
2017-10-25T03:21:40.337Z,15.93
2017-10-25T03:24:07.797Z,13.40
2017-10-25T03:26:35.245Z,17.63
2017-10-25T03:29:03.505Z,17.40
2017-10-25T03:31:30.960Z,15.03
2017-10-25T03:33:58.417Z,20.83
2017-10-25T03:36:25.897Z,23.00
2017-10-25T03:38:53.368Z,24.90
2017-10-25T03:41:20.822Z,17.97
2017-10-25T03:43:48.305Z,24.20
2017-10-25T03:46:15.773Z,18.03
2017-10-25T03:48:43.310Z,21.93
2017-10-25T03:51:11.139Z,18.93
2017-10-25T03:53:38.655Z,24.43
2017-10-25T03:56:06.146Z,21.43
2017-10-25T03:58:33.629Z,24.77
2017-10-25T04:01:01.082Z,21.57
2017-10-25T04:03:28.556Z,20.03
2017-10-25T04:05:56.021Z,21.77
2017-10-25T04:08:23.509Z,24.13
2017-10-25T04:10:51.005Z,18.57
2017-10-25T04:13:18.466Z,21.10
2017-10-25T04:15:45.922Z,20.67
2017-10-25T04:18:13.406Z,18.97
2017-10-25T04:20:40.863Z,20.10
2017-10-25T04:23:08.322Z,24.53
2017-10-25T04:25:35.822Z,20.17
2017-10-25T04:28:03.277Z,23.10
2017-10-25T04:30:30.743Z,24.53
2017-10-25T04:32:58.229Z,23.50
2017-10-25T04:35:25.729Z,18.13
2017-10-25T04:37:53.206Z,23.83
2017-10-25T04:40:20.733Z,31.57
2017-10-25T04:42:48.214Z,25.47
2017-10-25T04:45:15.693Z,19.13
2017-10-25T04:47:43.178Z,20.43
2017-10-25T04:50:10.642Z,21.10
2017-10-25T04:52:38.113Z,20.10
2017-10-25T04:55:06.340Z,19.43
2017-10-25T04:57:33.816Z,20.67
2017-10-25T05:00:01.300Z,19.07
2017-10-25T05:02:28.906Z,22.53
2017-10-25T05:04:56.374Z,18.37
2017-10-25T05:07:23.837Z,24.97
2017-10-25T05:09:51.373Z,27.20
2017-10-25T05:12:18.841Z,22.97
2017-10-25T05:14:46.318Z,18.87
2017-10-25T05:17:13.780Z,18.07
2017-10-25T05:19:41.258Z,19.60
2017-10-25T05:22:08.734Z,17.63
2017-10-25T05:24:36.982Z,16.10
2017-10-25T05:27:04.450Z,18.37
2017-10-25T05:29:31.937Z,13.63
2017-10-25T05:31:59.405Z,16.53
2017-10-25T05:34:26.874Z,12.50
2017-10-25T05:36:54.350Z,18.63
2017-10-25T05:39:21.873Z,12.30
2017-10-25T05:41:49.332Z,18.33
2017-10-25T05:44:16.817Z,23.33
2017-10-25T05:46:44.285Z,20.70
2017-10-25T05:49:11.766Z,13.70
2017-10-25T05:51:39.225Z,14.43
2017-10-25T05:54:06.712Z,16.17
2017-10-25T05:56:34.177Z,23.47
2017-10-25T05:59:01.659Z,11.00
2017-10-25T06:01:30.569Z,12.85
2017-10-25T06:03:58.078Z,16.63
2017-10-25T06:06:26.305Z,20.60
2017-10-25T06:08:54.041Z,8.17
2017-10-25T06:11:21.512Z,18.10
2017-10-25T06:13:49.002Z,15.80
2017-10-25T06:16:16.488Z,19.57
2017-10-25T06:18:44.903Z,14.30
2017-10-25T06:21:12.366Z,22.93
2017-10-25T06:23:39.824Z,21.13
2017-10-25T06:26:07.316Z,14.30
2017-10-25T06:28:34.790Z,21.40
2017-10-25T06:31:02.324Z,16.03
2017-10-25T06:33:30.458Z,22.00
2017-10-25T06:35:57.908Z,10.10
2017-10-25T06:38:25.441Z,20.27
2017-10-25T06:40:52.900Z,20.83
2017-10-25T06:43:20.371Z,16.87
2017-10-25T06:45:48.606Z,17.70
2017-10-25T06:48:16.076Z,12.10
2017-10-25T06:50:43.561Z,19.13
2017-10-25T06:53:11.796Z,20.70
2017-10-25T06:55:39.258Z,18.40
2017-10-25T06:58:06.741Z,23.00
2017-10-25T07:00:34.237Z,18.87
2017-10-25T07:03:01.698Z,23.30
2017-10-25T07:05:29.182Z,17.13
2017-10-25T07:07:56.660Z,24.03
2017-10-25T07:10:24.121Z,15.93
2017-10-25T07:12:51.600Z,10.03
2017-10-25T07:15:19.851Z,15.57
2017-10-25T07:17:47.314Z,19.10
2017-10-25T07:20:14.798Z,17.60
2017-10-25T07:22:43.059Z,13.13
2017-10-25T07:25:10.512Z,17.10
2017-10-25T07:27:37.973Z,22.10
2017-10-25T07:30:05.449Z,13.57
2017-10-25T07:32:33.662Z,11.03
2017-10-25T07:35:02.387Z,20.17
2017-10-25T07:37:29.874Z,19.93
2017-10-25T07:39:57.325Z,15.83
2017-10-25T07:42:25.574Z,18.50
2017-10-25T07:44:53.090Z,21.20
2017-10-25T07:47:20.586Z,14.20
2017-10-25T07:49:48.053Z,23.33
2017-10-25T07:52:15.521Z,33.37
2017-10-25T07:54:43.005Z,20.60
2017-10-25T07:57:11.253Z,19.20
2017-10-25T07:59:38.787Z,19.93
2017-10-25T08:02:06.270Z,18.57
2017-10-25T08:04:33.734Z,25.10
2017-10-25T08:07:02.141Z,23.03
2017-10-25T08:09:30.370Z,21.17
2017-10-25T08:11:57.873Z,17.17
2017-10-25T08:14:26.106Z,16.70
2017-10-25T08:16:53.574Z,18.10
2017-10-25T08:19:21.051Z,6.83
2017-10-25T08:21:49.278Z,19.70
2017-10-25T08:24:16.753Z,12.47
2017-10-25T08:26:44.222Z,12.47
2017-10-25T08:29:11.757Z,9.40
2017-10-25T08:31:39.214Z,14.93
2017-10-25T08:34:06.705Z,11.87
2017-10-25T08:36:34.166Z,19.80
2017-10-25T08:39:02.560Z,15.97
2017-10-25T08:41:30.809Z,13.20
2017-10-25T08:43:58.265Z,17.50
2017-10-25T08:46:25.724Z,10.07
2017-10-25T08:48:53.222Z,21.80
2017-10-25T08:51:21.444Z,27.90
2017-10-25T08:53:48.890Z,11.10
2017-10-25T08:56:16.374Z,15.13
2017-10-25T08:58:44.701Z,12.00
2017-10-25T09:01:12.174Z,14.23
2017-10-25T09:03:39.664Z,14.83
2017-10-25T09:06:07.129Z,18.80
2017-10-25T09:08:35.305Z,17.50
2017-10-25T09:11:04.080Z,9.77
2017-10-25T09:13:31.619Z,23.07
2017-10-25T09:15:59.877Z,10.37
2017-10-25T09:18:27.536Z,13.30
2017-10-25T09:20:55.027Z,11.30
2017-10-25T09:23:22.504Z,8.53
2017-10-25T09:25:50.148Z,8.13
2017-10-25T09:28:17.846Z,11.93
2017-10-25T09:30:46.394Z,16.50
2017-10-25T09:33:14.014Z,14.60
2017-10-25T09:35:41.569Z,17.37
2017-10-25T09:38:09.057Z,17.30
2017-10-25T09:40:36.529Z,16.40
2017-10-25T09:43:04.254Z,20.73
2017-10-25T09:45:31.768Z,12.03
2017-10-25T09:48:00.030Z,11.00
2017-10-25T09:50:27.534Z,14.03
2017-10-25T09:52:55.184Z,15.83
2017-10-25T09:55:22.776Z,11.40
2017-10-25T09:57:50.287Z,25.03
2017-10-25T10:00:17.900Z,12.40
2017-10-25T10:02:47.071Z,14.37
2017-10-25T10:05:15.399Z,9.53
2017-10-25T10:07:43.122Z,10.33
2017-10-25T10:10:11.348Z,12.77
2017-10-25T10:12:38.853Z,14.73
2017-10-25T10:15:07.365Z,20.33
2017-10-25T10:17:35.045Z,16.57
2017-10-25T10:20:02.566Z,10.10
2017-10-25T10:22:30.236Z,13.53
2017-10-25T10:24:58.494Z,9.43
2017-10-25T10:27:26.186Z,16.53
2017-10-25T10:29:53.822Z,20.10
2017-10-25T10:32:21.457Z,10.57
2017-10-25T10:34:49.020Z,13.83
2017-10-25T10:37:16.602Z,11.87
2017-10-25T10:39:44.916Z,18.60
2017-10-25T10:42:12.901Z,7.77
2017-10-25T10:44:40.389Z,14.00
2017-10-25T10:47:07.849Z,7.33
2017-10-25T10:49:35.377Z,10.87
2017-10-25T10:52:02.834Z,6.00
2017-10-25T10:54:30.490Z,12.10
2017-10-25T10:56:57.965Z,16.13
2017-10-25T10:59:25.808Z,14.17
2017-10-25T11:01:53.671Z,9.50
2017-10-25T11:04:21.237Z,19.70
2017-10-25T11:06:48.753Z,10.87
2017-10-25T11:09:16.524Z,16.37
2017-10-25T11:11:44.049Z,9.87
2017-10-25T11:14:11.538Z,14.23
2017-10-25T11:16:39.010Z,18.10
2017-10-25T11:19:07.373Z,12.20
2017-10-25T11:21:36.869Z,20.60
2017-10-25T11:24:04.360Z,16.90
2017-10-25T11:26:32.675Z,22.33
2017-10-25T11:29:00.188Z,11.20
2017-10-25T11:31:28.440Z,15.07
2017-10-25T11:33:55.904Z,25.17
2017-10-25T11:36:23.819Z,18.77
2017-10-25T11:38:51.602Z,17.97
2017-10-25T11:41:19.224Z,20.23
2017-10-25T11:43:46.852Z,17.50
2017-10-25T11:46:14.524Z,22.80
2017-10-25T11:48:42.008Z,19.57
2017-10-25T11:51:09.551Z,21.47
2017-10-25T11:53:37.527Z,12.53
2017-10-25T11:56:05.180Z,24.60
2017-10-25T11:58:32.808Z,23.40
2017-10-25T12:01:00.326Z,19.00
2017-10-25T12:03:27.948Z,27.10
2017-10-25T12:05:55.623Z,25.97
2017-10-25T12:08:23.894Z,12.63
2017-10-25T12:10:51.409Z,37.33
2017-10-25T12:13:19.192Z,23.20
2017-10-25T12:15:46.701Z,24.17
2017-10-25T12:18:14.474Z,24.33
2017-10-25T12:20:42.983Z,9.90
2017-10-25T12:23:10.682Z,29.73
2017-10-25T12:25:38.352Z,23.90
2017-10-25T12:28:07.859Z,32.20
2017-10-25T12:30:37.279Z,21.57
2017-10-25T12:33:04.898Z,37.67
2017-10-25T12:35:32.659Z,34.40
2017-10-25T12:38:00.415Z,27.67
2017-10-25T12:40:28.055Z,22.57
2017-10-25T12:42:55.578Z,26.30
2017-10-25T12:45:23.201Z,29.50
2017-10-25T12:47:50.794Z,28.70
2017-10-25T12:50:18.473Z,27.70
2017-10-25T12:52:46.116Z,40.37
2017-10-25T12:55:14.505Z,26.37
2017-10-25T12:57:42.253Z,25.30
2017-10-25T13:00:09.926Z,21.97
2017-10-25T13:02:37.459Z,23.27
2017-10-25T13:05:05.140Z,23.03
2017-10-25T13:07:32.711Z,20.97
2017-10-25T13:10:00.210Z,23.20
2017-10-25T13:12:30.162Z,24.13
2017-10-25T13:15:02.478Z,25.10
2017-10-25T13:17:34.432Z,27.20
2017-10-25T13:22:50.501Z,20.87
2017-10-25T13:25:22.592Z,20.67
2017-10-25T13:27:51.574Z,24.40
2017-10-25T13:30:19.101Z,21.97
2017-10-25T13:32:49.957Z,19.57
2017-10-25T13:35:18.126Z,15.90
2017-10-25T13:37:45.594Z,22.20
2017-10-25T13:40:14.869Z,18.37
2017-10-25T13:42:42.329Z,25.33
2017-10-25T13:45:10.565Z,25.80
2017-10-25T13:47:38.046Z,23.97
2017-10-25T13:50:05.516Z,27.30
2017-10-25T13:52:33.015Z,30.07
2017-10-25T13:55:00.493Z,21.77
2017-10-25T13:57:27.961Z,21.87
2017-10-25T13:59:55.443Z,26.13
2017-10-25T14:02:23.677Z,34.53
2017-10-25T14:04:51.165Z,26.83
2017-10-25T14:07:18.657Z,28.53
2017-10-25T14:09:46.132Z,23.63
2017-10-25T14:12:14.018Z,33.23
2017-10-25T14:14:41.477Z,29.80
2017-10-25T14:17:08.962Z,22.07
2017-10-25T14:19:36.441Z,26.90
2017-10-25T14:22:04.698Z,27.50
2017-10-25T14:24:32.155Z,30.00
2017-10-25T14:27:11.490Z,27.20
2017-10-25T14:29:38.948Z,27.27
2017-10-25T14:32:06.410Z,21.97
2017-10-25T14:34:33.884Z,27.97
2017-10-25T14:37:01.375Z,33.93
2017-10-25T14:39:28.940Z,28.37
2017-10-25T14:41:56.410Z,29.70
2017-10-25T14:44:23.905Z,33.37
2017-10-25T14:46:51.370Z,35.47
2017-10-25T14:49:18.830Z,28.90
2017-10-25T14:51:46.310Z,25.50
2017-10-25T14:54:14.562Z,29.10
2017-10-25T14:56:42.028Z,36.00
2017-10-25T14:59:10.345Z,25.00
2017-10-25T15:01:37.826Z,28.40
2017-10-25T15:04:05.289Z,27.70
2017-10-25T15:06:32.766Z,36.03
2017-10-25T15:09:00.295Z,29.30
2017-10-25T15:11:27.774Z,28.47
2017-10-25T15:13:55.247Z,26.70
2017-10-25T15:16:22.732Z,39.13
2017-10-25T15:18:50.961Z,31.20
2017-10-25T15:21:18.418Z,29.83
2017-10-25T15:23:45.914Z,32.23
2017-10-25T15:26:13.366Z,30.97
2017-10-25T15:28:40.835Z,26.37
2017-10-25T15:31:08.352Z,31.17
2017-10-25T15:33:35.840Z,26.97
2017-10-25T15:36:03.304Z,18.43
2017-10-25T15:38:31.610Z,25.50
2017-10-25T15:40:59.104Z,26.00
2017-10-25T15:43:26.597Z,36.87
2017-10-25T15:45:54.067Z,29.60
2017-10-25T15:48:22.317Z,29.47
2017-10-25T15:50:49.777Z,25.80
2017-10-25T15:53:17.262Z,37.80
2017-10-25T15:55:44.754Z,29.20
2017-10-25T15:58:12.209Z,23.50
2017-10-25T16:00:40.951Z,35.17
2017-10-25T16:03:10.130Z,39.10
2017-10-25T16:05:37.606Z,36.20
2017-10-25T16:08:05.073Z,40.10
2017-10-25T16:10:32.569Z,39.40
2017-10-25T16:13:00.063Z,29.97
2017-10-25T16:15:27.517Z,33.97
2017-10-25T16:17:55.038Z,35.13
2017-10-25T16:20:22.509Z,37.70
2017-10-25T16:22:50.810Z,29.47
2017-10-25T16:25:18.367Z,33.63
2017-10-25T16:27:45.923Z,32.50
2017-10-25T16:30:13.610Z,41.67
2017-10-25T16:32:41.135Z,41.53
2017-10-25T16:35:08.630Z,39.30
2017-10-25T16:37:37.039Z,50.77
2017-10-25T16:40:04.664Z,42.87
2017-10-25T16:42:32.293Z,44.93
2017-10-25T16:44:59.863Z,27.02
2017-10-25T16:47:27.592Z,45.83
2017-10-25T16:49:55.296Z,41.80
2017-10-25T16:52:22.958Z,43.90
2017-10-25T16:54:50.697Z,42.90
2017-10-25T16:57:18.314Z,34.80
2017-10-25T16:59:45.806Z,50.33
2017-10-25T17:02:13.688Z,49.10
2017-10-25T17:04:41.321Z,52.47
2017-10-25T17:07:09.688Z,48.57
2017-10-25T17:09:37.320Z,50.30
2017-10-25T17:12:05.128Z,57.60
2017-10-25T17:14:32.689Z,64.93
2017-10-25T17:17:01.068Z,45.13
2017-10-25T17:19:28.692Z,62.00
2017-10-25T17:21:58.001Z,61.80
2017-10-25T17:24:25.477Z,60.43
2017-10-25T17:26:53.699Z,48.50
2017-10-25T17:29:22.484Z,60.67
2017-10-25T17:31:50.137Z,56.40
2017-10-25T17:34:17.845Z,60.40
2017-10-25T17:36:45.584Z,61.17
2017-10-25T17:39:13.033Z,62.03
2017-10-25T17:41:40.660Z,68.63
2017-10-25T17:44:09.173Z,63.13
2017-10-25T17:46:36.685Z,59.87
2017-10-25T17:49:04.142Z,62.53
2017-10-25T17:51:31.633Z,66.23
2017-10-25T17:53:59.154Z,52.70
2017-10-25T17:56:26.861Z,78.47
2017-10-25T17:58:54.451Z,57.13
2017-10-25T18:01:21.939Z,63.37
2017-10-25T18:03:49.467Z,77.93
2017-10-25T18:06:17.093Z,80.93
2017-10-25T18:08:44.540Z,55.40
2017-10-25T18:11:13.083Z,68.28
2017-10-25T18:13:40.717Z,80.97
2017-10-25T18:16:08.181Z,60.50
2017-10-25T18:18:35.692Z,66.50
2017-10-25T18:21:03.921Z,70.60
2017-10-25T18:23:31.375Z,89.67
2017-10-25T18:25:58.857Z,71.83
2017-10-25T18:28:26.339Z,80.77
2017-10-25T18:30:53.811Z,60.50
2017-10-25T18:33:22.055Z,76.87
2017-10-25T18:35:59.441Z,65.82
2017-10-25T18:38:30.236Z,72.43
2017-10-25T18:40:59.877Z,79.00
2017-10-25T18:43:27.447Z,63.00
2017-10-25T18:45:55.087Z,70.07
2017-10-25T18:48:22.723Z,67.53
2017-10-25T18:50:50.225Z,84.50
2017-10-25T18:53:17.720Z,74.37
2017-10-25T18:55:45.224Z,81.80
2017-10-25T18:58:13.484Z,99.07
2017-10-25T19:00:40.985Z,102.67
2017-10-25T19:03:08.450Z,100.57
2017-10-25T19:05:36.717Z,85.77
2017-10-25T19:08:04.188Z,93.70
2017-10-25T19:10:31.659Z,89.07
2017-10-25T19:12:59.413Z,92.07
2017-10-25T19:15:27.936Z,83.82
2017-10-25T19:17:55.854Z,93.47
2017-10-25T19:20:24.164Z,101.97
2017-10-25T19:22:52.389Z,93.63
2017-10-25T19:25:19.884Z,106.37
2017-10-25T19:27:47.332Z,84.87
2017-10-25T19:30:14.991Z,106.50
2017-10-25T19:32:44.551Z,109.50
2017-10-25T19:35:12.165Z,91.03
2017-10-25T19:37:39.663Z,98.40
2017-10-25T19:40:07.138Z,118.10
2017-10-25T19:42:34.609Z,109.60
2017-10-25T19:45:02.081Z,113.90
2017-10-25T19:47:29.852Z,97.63
2017-10-25T19:49:57.340Z,129.03
2017-10-25T19:52:25.569Z,114.40
2017-10-25T19:54:53.206Z,105.40
2017-10-25T19:57:20.967Z,102.47
2017-10-25T19:59:48.645Z,122.60
2017-10-25T20:02:16.158Z,111.80
2017-10-25T20:04:44.941Z,137.18
2017-10-25T20:07:12.425Z,100.80
2017-10-25T20:09:40.701Z,119.03
2017-10-25T20:12:08.955Z,164.13
2017-10-25T20:14:36.437Z,134.27
2017-10-25T20:17:04.685Z,110.57
2017-10-25T20:19:32.206Z,151.07
2017-10-25T20:21:59.670Z,112.00
2017-10-25T20:24:27.190Z,108.40
2017-10-25T20:26:54.685Z,111.07
2017-10-25T20:29:22.181Z,149.37
2017-10-25T20:31:49.644Z,151.47
2017-10-25T20:34:17.455Z,174.80
2017-10-25T20:36:46.734Z,142.47
2017-10-25T20:39:15.456Z,154.57
2017-10-25T20:41:42.954Z,173.40
2017-10-25T20:44:10.413Z,138.77
2017-10-25T20:46:37.906Z,262.93
2017-10-25T20:49:05.366Z,154.70
2017-10-25T20:51:32.822Z,166.93
2017-10-25T20:54:01.069Z,152.33
2017-10-25T20:56:28.524Z,208.83
2017-10-25T20:58:56.013Z,146.87
2017-10-25T21:01:24.230Z,128.73
2017-10-25T21:03:51.708Z,124.13
2017-10-25T21:06:19.169Z,177.70
2017-10-25T21:08:46.682Z,159.87
2017-10-25T21:11:15.081Z,209.80
2017-10-25T21:13:42.532Z,158.73
2017-10-25T21:16:10.030Z,152.57
2017-10-25T21:18:37.505Z,167.60
2017-10-25T21:21:05.737Z,185.60
2017-10-25T21:23:33.224Z,167.87
2017-10-25T21:26:00.685Z,186.97
2017-10-25T21:28:28.165Z,135.10
2017-10-25T21:30:56.397Z,156.80
2017-10-25T21:33:23.885Z,142.97
2017-10-25T21:35:51.350Z,144.27
2017-10-25T21:38:19.605Z,266.27
2017-10-25T21:40:47.080Z,298.27
2017-10-25T21:43:14.529Z,291.10
2017-10-25T21:45:42.013Z,179.63
2017-10-25T21:48:10.242Z,172.13
2017-10-25T21:50:37.716Z,192.23
2017-10-25T21:53:05.188Z,184.33
2017-10-25T21:55:33.534Z,212.40
2017-10-25T21:58:01.015Z,180.23
2017-10-25T22:00:28.509Z,166.70
2017-10-25T22:02:55.980Z,169.90
2017-10-25T22:05:23.455Z,173.77
2017-10-25T22:07:50.928Z,175.60
2017-10-25T22:10:18.440Z,154.23
2017-10-25T22:12:46.401Z,226.05
2017-10-25T22:15:14.631Z,163.20
2017-10-25T22:17:42.108Z,205.03
2017-10-25T22:20:09.566Z,201.17
2017-10-25T22:22:37.105Z,158.17
2017-10-25T22:25:05.335Z,143.03
2017-10-25T22:27:32.806Z,146.17
2017-10-25T22:30:00.285Z,130.57
2017-10-25T22:32:27.759Z,150.37
2017-10-25T22:34:55.238Z,167.47
2017-10-25T22:37:22.688Z,197.93
2017-10-25T22:39:50.209Z,185.60
2017-10-25T22:42:17.668Z,177.70
2017-10-25T22:44:45.133Z,159.13
2017-10-25T22:47:12.600Z,132.57
2017-10-25T22:49:40.052Z,156.33
2017-10-25T22:52:07.541Z,122.33
2017-10-25T22:54:35.037Z,171.97
2017-10-25T22:57:02.489Z,135.77
2017-10-25T22:59:30.860Z,147.27
2017-10-25T23:01:59.100Z,130.17
2017-10-25T23:04:26.589Z,123.70
2017-10-25T23:06:55.005Z,160.37
2017-10-25T23:09:22.667Z,151.17
2017-10-25T23:11:50.134Z,176.73
2017-10-25T23:14:18.438Z,192.00
2017-10-25T23:16:47.638Z,178.57
2017-10-25T23:19:15.172Z,151.90
2017-10-25T23:21:42.737Z,156.07
2017-10-25T23:24:10.197Z,120.57
2017-10-25T23:26:37.669Z,134.57
2017-10-25T23:29:05.202Z,167.53
2017-10-25T23:31:32.706Z,166.50
2017-10-25T23:34:00.172Z,187.77
2017-10-25T23:36:27.649Z,137.23
2017-10-25T23:38:55.917Z,133.80
2017-10-25T23:41:24.135Z,140.40
2017-10-25T23:43:51.624Z,152.40
2017-10-25T23:46:19.095Z,187.83
2017-10-25T23:48:46.574Z,134.57
2017-10-25T23:51:14.817Z,146.10
2017-10-25T23:53:42.293Z,139.20
2017-10-25T23:56:09.869Z,148.57
2017-10-25T23:58:37.317Z,139.80
